Emblem, WY (82422)

5:14 AM MDT on October 25, 2014 (GMT -0600)
South Big Horn County | Change Station
CLOSE
Current Station
Airport
Location: Greybull,
Elevation: 3934 ft
Nearby Weather Stations

Elev 3934 ft 44.52 °N, 108.08 °W | Updated 21 minutes ago

Clear
Clear
34 °F
Feels Like 30 °F
N
5
Wind Variable Wind from SSE

Today
High -- | Low -- °F
--% Chance of Precip.
Yesterday
High -- | Low -- °F
Precip. -- in
7:41 AM 6:12 PM
Waxing Crescent, 3% visible
Pressure 30.06 in
Visibility 10.0 miles
Clouds Clear
Windchill 30 °F
Dew Point 28 °F
Humidity 79%
Rainfall 0.00 in
Snow Depth Not available.
UV 0 out of 12
Pollen 1.60 out of 12
Air Quality Not available.
Flu Activity Sporadic
METAR KGEY 251053Z AUTO 15004KT 10SM CLR 01/M02 A3009 RMK AO2 SLP178 T00111022

More Conditions Fewer Conditions

Pressure 30.06 in
Visibility 10.0 miles
Clouds Clear
Windchill 30 °F
Dew Point 28 °F
Humidity 79%
Rainfall 0.00 in
Snow Depth Not available.
UV 0 out of 12
Pollen 1.60 out of 12
Air Quality Not available.
Flu Activity Sporadic
METAR KGEY 251053Z AUTO 15004KT 10SM CLR 01/M02 A3009 RMK AO2 SLP178 T00111022

More Conditions Fewer Conditions

10-Day Weather Forecast

Almanac

Astronomy

Oct. 25, 2014 Rise Set
Actual Time 7:41 AM MDT 6:12 PM MDT
Civil Twilight 7:11 AM MDT 6:42 PM MDT
Nautical Twilight 6:37 AM MDT 7:16 PM MDT
Astronomical Twilight 6:04 AM MDT 7:50 PM MDT
Moon 9:26 AM MDT 7:34 PM MDT
Length of Visible Light 11h 30m
Length of Day
10h 31m
Tomorrow will be 2m 51s shorter.
Waxing Crescent, 3% of the Moon is Illuminated
Today
Waxing Crescent
Oct 30
First Quarter
Nov 6
Full
Nov 14
Last Quarter
Nov 22
New

Today's Extremes

State Highs State Lows

Community

WunderPhotos

Upload Photos

1,764,808 photos uploaded!

Nearby

Snow Depth

Station Depth Elevation
Bald Mountain 1 in 9380 ft
Bone Springs Divide 1 in 9350 ft
Marquette 0 in 8760 ft
Burgess Junction 1 in 7880 ft
Shell Creek 0 in 9580 ft

Earthquake Activity

City Distance Mag. Time & Date
No recent earthquake activity has been reported nearby.
Minimum magnitude displayed is 2.5.

Coastal Water Temperatures

Place Temperature
No Stations Reporting

Nearby Weather Stations